Grand Adventure — WDH4338 — position and weather

sailwx.info

Track history (hours):
 
Tides and Currents Weather Stations Pressure Air Temp Water Temp Dewpoint Dewpoint Depression Visibility Wind Speed Wind Dir Waves Ship Positions

Grand Adventure

Owner: Bender, David E, Edgewood, WA. More information available from US FCC via Universal Licensing System and Coast Guard Vessel Documentation Center.

Last reported at 2018-May-28 23:49 UTC. Time now 2018-Jun-20 07:54 UTC.
Position N 47°16' W 122°26'.
Warning: this ship's position is 22 days out of date.

Length 18 m; draft 2 m.

Type: Pleasure craft. MMSI: 367616680.

Date/timePositionNaut miles runAvg speedWind from/ knotsBaromVisibWave heightAir tempDewpointWater temp
2018-May-28 23:49N 47°16' W 122°26'2 6.8
2018-May-28 23:30N 47°17' W 122°28'5 7.0
2018-May-28 22:46N 47°22' W 122°32'5 8.0
2018-May-28 22:09N 47°26' W 122°31'1 8.0
2018-May-28 22:00N 47°28' W 122°31'4 8.3
2018-May-28 21:30N 47°31' W 122°29'4 8.3
2018-May-28 21:00N 47°36' W 122°29'  
2018-May-26 01:04N 47°37' W 122°30'1 5.2
2018-May-26 00:54N 47°37' W 122°30'3 7.2
2018-May-26 00:30N 47°34' W 122°28'4 7.6
2018-May-26 00:00N 47°30' W 122°29'12 7.5
2018-May-25 22:24N 47°18' W 122°29'  
Track history (hours):
 
Tides and Currents Weather Stations Pressure Air Temp Water Temp Dewpoint Dewpoint Depression Visibility Wind Speed Wind Dir Waves Ship Positions

Grand Adventure

Owner: Bender, David E, Edgewood, WA. More information available from US FCC via Universal Licensing System and Coast Guard Vessel Documentation Center.

Last reported at 2018-May-28 23:49 UTC. Time now 2018-Jun-20 07:54 UTC.
Position N 47°16' W 122°26'.
Warning: this ship's position is 22 days out of date.

Length 18 m; draft 2 m.

Type: Pleasure craft. MMSI: 367616680.

Date/timePositionNaut miles runAvg speedWind from/ knotsBaromVisibWave heightAir tempDewpointWater temp
2018-May-28 23:49N 47°16' W 122°26'2 6.8
2018-May-28 23:30N 47°17' W 122°28'5 7.0
2018-May-28 22:46N 47°22' W 122°32'5 8.0
2018-May-28 22:09N 47°26' W 122°31'1 8.0
2018-May-28 22:00N 47°28' W 122°31'4 8.3
2018-May-28 21:30N 47°31' W 122°29'4 8.3
2018-May-28 21:00N 47°36' W 122°29'  
2018-May-26 01:04N 47°37' W 122°30'1 5.2
2018-May-26 00:54N 47°37' W 122°30'3 7.2
2018-May-26 00:30N 47°34' W 122°28'4 7.6
2018-May-26 00:00N 47°30' W 122°29'12 7.5
2018-May-25 22:24N 47°18' W 122°29'  

Dump ship's entire track history